WADD/DPS METAR and TAF weather

Enter ICAO airport designator
Station Type Date Time Source
WADD METAR 2019/04/25 07:30 UTC NOAA

WADD 250730Z 12015KT 9999 FEW017 30/26 Q1007 NOSIG


Station Type Date Time Source
WADD Decoded METAR 2019/04/25 07:30 UTC NOAA

Station name not available
Apr 25, 2019 - 03:30 AM EDT / 2019.04.25 0730 UTC
Wind: from the ESE (120 degrees) at 17 MPH (15 KT):0
Visibility: greater than 7 mile(s):0
Sky conditions: mostly clear
Temperature: 86 F (30 C)
Heat index: 99.3 F (37.4 C):1
Dew Point: 78 F (26 C)
Relative Humidity: 79%
Pressure (altimeter): 29.74 in. Hg (1007 hPa)
ob: WADD 250730Z 12015KT 9999 FEW017 30/26 Q1007 NOSIG
cycle: 7

Station Type Date Time Source
WADD TAF 2019/04/25 06:09 UTC NOAA

TAF WADD 250500Z 2506/2606 12015KT 9999 FEW018
BECMG 2512/2514 10010KT SCT016

Example: see airport list